createdAt,value
2019-05-21T00:00:42.305Z,100537.17
2019-05-21T00:03:46.134Z,100534.98
2019-05-21T00:06:49.988Z,100531.47
2019-05-21T00:09:53.817Z,100532.88
2019-05-21T00:12:57.713Z,100529.05
2019-05-21T00:16:01.610Z,100526.84
2019-05-21T00:19:05.611Z,100528.11
2019-05-21T00:22:09.499Z,100528.83
2019-05-21T00:25:16.932Z,100527.34
2019-05-21T00:28:42.662Z,100529.85
2019-05-21T00:32:22.409Z,100527.78
2019-05-21T00:36:02.359Z,100523.83
2019-05-21T00:39:41.986Z,100525.20
2019-05-21T00:42:46.566Z,100534.64
2019-05-21T00:45:50.418Z,100525.41
2019-05-21T00:48:54.340Z,100534.01
2019-05-21T00:52:07.011Z,100538.27
2019-05-21T00:55:04.245Z,100533.72
2019-05-21T00:58:08.134Z,100540.07
2019-05-21T01:01:11.974Z,100537.91
2019-05-21T01:04:15.887Z,100536.53
2019-05-21T01:07:19.821Z,100536.57
2019-05-21T01:10:23.641Z,100542.50
2019-05-21T01:13:28.042Z,100542.39
2019-05-21T01:16:32.014Z,100544.41
2019-05-21T01:19:35.867Z,100536.65
2019-05-21T01:22:39.802Z,100539.02
2019-05-21T01:25:43.665Z,100538.14
2019-05-21T01:28:47.583Z,100539.58
2019-05-21T01:31:51.511Z,100532.17
2019-05-21T01:34:55.442Z,100526.43
2019-05-21T01:37:59.272Z,100525.56
2019-05-21T01:41:03.193Z,100527.30
2019-05-21T01:44:07.072Z,100521.09
2019-05-21T01:47:10.878Z,100527.16
2019-05-21T01:50:14.741Z,100525.09
2019-05-21T01:53:18.577Z,100525.48
2019-05-21T01:56:22.522Z,100525.49
2019-05-21T01:59:26.371Z,100525.27
2019-05-21T02:02:30.180Z,100531.45
2019-05-21T02:05:34.128Z,100529.99
2019-05-21T02:08:37.977Z,100525.55
2019-05-21T02:11:41.821Z,100525.81
2019-05-21T02:14:45.641Z,100520.20
2019-05-21T02:17:49.548Z,100521.31
2019-05-21T02:20:53.444Z,100511.56
2019-05-21T02:23:57.323Z,100512.61
2019-05-21T02:27:01.134Z,100508.89
2019-05-21T02:30:07.850Z,100508.11
2019-05-21T02:33:11.922Z,100507.26
2019-05-21T02:36:15.770Z,100516.45
2019-05-21T02:39:19.622Z,100518.87
2019-05-21T02:42:23.470Z,100524.05
2019-05-21T02:45:27.347Z,100522.23
2019-05-21T02:48:31.302Z,100527.11
2019-05-21T02:51:35.256Z,100525.49
2019-05-21T02:54:41.693Z,100531.91
2019-05-21T02:57:44.791Z,100538.19
2019-05-21T03:01:04.117Z,100547.80
2019-05-21T03:04:07.924Z,100549.18
2019-05-21T03:07:17.931Z,100538.48
2019-05-21T03:10:21.740Z,100539.59
2019-05-21T03:13:25.662Z,100546.45
2019-05-21T03:16:29.487Z,100548.55
2019-05-21T03:19:33.352Z,100549.52
2019-05-21T03:22:37.228Z,100546.83
2019-05-21T03:25:41.212Z,100544.59
2019-05-21T03:28:45.164Z,100541.92
2019-05-21T03:31:49.070Z,100543.97
2019-05-21T03:34:52.960Z,100543.41
2019-05-21T03:37:56.893Z,100543.02
2019-05-21T03:41:00.694Z,100545.45
2019-05-21T03:44:04.589Z,100554.42
2019-05-21T03:47:08.427Z,100556.36
2019-05-21T03:50:12.341Z,100555.52
2019-05-21T03:53:16.248Z,100549.23
2019-05-21T03:56:20.039Z,100560.16
2019-05-21T03:59:23.932Z,100566.20
2019-05-21T04:02:27.758Z,100568.41
2019-05-21T04:05:31.596Z,100564.32
2019-05-21T04:08:35.429Z,100565.27
2019-05-21T04:11:39.398Z,100567.54
2019-05-21T04:14:47.600Z,100563.92
2019-05-21T04:18:00.449Z,100573.67
2019-05-21T04:21:04.378Z,100578.47
2019-05-21T04:24:09.272Z,100579.26
2019-05-21T04:27:13.814Z,100587.43
2019-05-21T04:30:17.858Z,100582.14
2019-05-21T04:33:21.705Z,100572.38
2019-05-21T04:36:25.603Z,100566.07
2019-05-21T04:39:29.453Z,100572.09
2019-05-21T04:42:33.276Z,100567.86
2019-05-21T04:45:37.105Z,100569.33
2019-05-21T04:48:40.943Z,100569.52
2019-05-21T04:51:44.875Z,100567.60
2019-05-21T04:54:48.707Z,100569.53
2019-05-21T04:57:52.574Z,100568.61
2019-05-21T05:00:56.375Z,100570.64
2019-05-21T05:04:00.278Z,100573.31
2019-05-21T05:07:04.410Z,100579.30
2019-05-21T05:10:08.493Z,100564.01
2019-05-21T05:13:12.418Z,100569.52
2019-05-21T05:16:16.261Z,100580.17
2019-05-21T05:19:20.287Z,100581.45
2019-05-21T05:22:24.273Z,100576.90
2019-05-21T05:25:28.233Z,100580.28
2019-05-21T05:28:32.073Z,100573.19
2019-05-21T05:31:35.980Z,100568.33
2019-05-21T05:34:39.942Z,100570.23
2019-05-21T05:37:48.388Z,100573.95
2019-05-21T05:40:49.381Z,100570.26
2019-05-21T05:43:53.306Z,100565.46
2019-05-21T05:46:57.210Z,100571.52
2019-05-21T05:50:02.773Z,100570.10
2019-05-21T05:53:06.642Z,100578.31
2019-05-21T05:56:10.485Z,100583.11
2019-05-21T05:59:14.771Z,100579.54
2019-05-21T06:02:18.860Z,100582.94
2019-05-21T06:05:22.940Z,100573.95
2019-05-21T06:08:26.801Z,100577.13
2019-05-21T06:11:30.722Z,100574.92
2019-05-21T06:14:34.547Z,100578.55
2019-05-21T06:17:38.517Z,100578.39
2019-05-21T06:20:42.342Z,100585.39
2019-05-21T06:23:46.156Z,100589.95
2019-05-21T06:26:50.065Z,100588.36
2019-05-21T06:29:53.957Z,100580.00
2019-05-21T06:32:57.838Z,100581.50
2019-05-21T06:36:01.681Z,100579.22
2019-05-21T06:39:07.711Z,100571.30
2019-05-21T06:42:11.655Z,100574.66
2019-05-21T06:45:16.173Z,100579.48
2019-05-21T06:48:20.086Z,100573.32
2019-05-21T06:51:23.956Z,100572.86
2019-05-21T06:54:28.196Z,100574.80
2019-05-21T06:57:32.105Z,100581.80
2019-05-21T07:00:35.914Z,100587.84
2019-05-21T07:03:39.725Z,100587.16
2019-05-21T07:06:44.893Z,100578.52
2019-05-21T07:09:49.024Z,100584.44
2019-05-21T07:12:52.832Z,100582.87
2019-05-21T07:15:56.672Z,100582.32
2019-05-21T07:19:00.523Z,100588.12
2019-05-21T07:22:12.738Z,100588.67
2019-05-21T07:25:10.174Z,100573.31
2019-05-21T07:28:14.090Z,100571.98
2019-05-21T07:31:18.020Z,100573.02
2019-05-21T07:34:21.848Z,100575.69
2019-05-21T07:37:25.759Z,100584.68
2019-05-21T07:40:29.650Z,100587.72
2019-05-21T07:43:33.579Z,100578.44
2019-05-21T07:46:39.645Z,100592.18
2019-05-21T07:49:48.078Z,100594.19
2019-05-21T07:52:52.015Z,100599.59
2019-05-21T07:55:55.888Z,100602.63
2019-05-21T07:58:59.711Z,100606.53
2019-05-21T08:02:03.542Z,100604.66
2019-05-21T08:05:07.772Z,100604.77
2019-05-21T08:08:11.651Z,100607.41
2019-05-21T08:11:15.492Z,100604.18
2019-05-21T08:14:19.483Z,100597.41
2019-05-21T08:17:23.307Z,100594.17
2019-05-21T08:20:27.743Z,100593.63
2019-05-21T08:23:31.555Z,100595.28
2019-05-21T08:26:35.427Z,100604.23
2019-05-21T08:29:39.238Z,100611.53
2019-05-21T08:32:43.104Z,100609.23
2019-05-21T08:35:47.076Z,100609.16
2019-05-21T08:38:51.095Z,100617.64
2019-05-21T08:41:54.949Z,100614.69
2019-05-21T08:44:58.843Z,100611.92
2019-05-21T08:48:02.773Z,100611.42
2019-05-21T08:51:06.749Z,100605.20
2019-05-21T08:54:10.785Z,100601.58
2019-05-21T08:57:14.827Z,100595.23
2019-05-21T09:00:20.948Z,100591.02
2019-05-21T09:03:24.872Z,100586.37
2019-05-21T09:06:28.850Z,100588.05
2019-05-21T09:09:48.565Z,100594.60
2019-05-21T09:12:38.346Z,100586.45
2019-05-21T09:15:42.195Z,100581.83
2019-05-21T09:18:46.050Z,100580.83
2019-05-21T09:21:49.854Z,100586.38
2019-05-21T09:24:53.896Z,100589.95
2019-05-21T09:27:57.761Z,100599.92
2019-05-21T09:31:02.287Z,100596.91
2019-05-21T09:34:06.402Z,100601.23
2019-05-21T09:37:19.267Z,100597.36
2019-05-21T09:40:17.658Z,100598.31
2019-05-21T09:43:21.473Z,100605.22
2019-05-21T09:46:25.373Z,100593.37
2019-05-21T09:49:29.285Z,100600.52
2019-05-21T09:52:33.308Z,100594.86
2019-05-21T09:55:37.152Z,100595.02
2019-05-21T09:58:45.029Z,100599.52
2019-05-21T10:01:50.724Z,100596.06
2019-05-21T10:04:54.590Z,100603.48
2019-05-21T10:07:58.432Z,100606.17
2019-05-21T10:11:03.633Z,100605.84
2019-05-21T10:14:07.599Z,100597.82
2019-05-21T10:17:11.526Z,100604.03
2019-05-21T10:20:15.530Z,100594.25
2019-05-21T10:23:20.092Z,100600.88
2019-05-21T10:26:24.044Z,100607.59
2019-05-21T10:29:27.907Z,100610.56
2019-05-21T10:32:31.844Z,100602.89
2019-05-21T10:35:35.671Z,100603.07
2019-05-21T10:38:39.693Z,100605.95
2019-05-21T10:41:46.028Z,100605.25
2019-05-21T10:44:49.447Z,100596.13
2019-05-21T10:47:53.309Z,100592.82
2019-05-21T10:50:57.203Z,100589.28
2019-05-21T10:54:01.130Z,100584.98
2019-05-21T10:57:05.149Z,100583.74
2019-05-21T11:00:13.261Z,100586.61
2019-05-21T11:03:25.197Z,100583.63
2019-05-21T11:06:29.084Z,100581.57
2019-05-21T11:09:33.146Z,100582.43
2019-05-21T11:12:37.085Z,100588.52
2019-05-21T11:15:41.120Z,100591.44
2019-05-21T11:18:45.034Z,100594.91
2019-05-21T11:21:48.873Z,100586.31
2019-05-21T11:24:52.888Z,100585.53
2019-05-21T11:27:56.740Z,100597.09
2019-05-21T11:31:00.624Z,100596.67
2019-05-21T11:34:04.602Z,100601.27
2019-05-21T11:37:08.548Z,100594.75
2019-05-21T11:40:12.949Z,100593.09
2019-05-21T11:43:16.791Z,100597.16
2019-05-21T11:46:20.645Z,100604.45
2019-05-21T11:49:24.516Z,100599.23
2019-05-21T11:52:28.400Z,100607.28
2019-05-21T11:55:32.340Z,100607.55
2019-05-21T11:58:39.782Z,100605.78
2019-05-21T12:01:41.778Z,100605.78
2019-05-21T12:04:45.633Z,100607.39
2019-05-21T12:07:49.479Z,100610.67
2019-05-21T12:10:53.451Z,100604.95
2019-05-21T12:13:57.314Z,100606.98
2019-05-21T12:17:01.250Z,100614.09
2019-05-21T12:20:06.424Z,100611.08
2019-05-21T12:23:10.273Z,100608.14
2019-05-21T12:26:14.285Z,100603.08
2019-05-21T12:29:18.122Z,100605.09
2019-05-21T12:32:21.976Z,100602.59
2019-05-21T12:35:25.822Z,100603.06
2019-05-21T12:38:29.804Z,100607.52
2019-05-21T12:41:33.689Z,100601.20
2019-05-21T12:44:37.643Z,100594.66
2019-05-21T12:47:41.594Z,100598.94
2019-05-21T12:50:45.439Z,100598.11
2019-05-21T12:53:49.288Z,100605.28
2019-05-21T12:56:53.242Z,100598.70
2019-05-21T12:59:57.194Z,100597.83
2019-05-21T13:03:01.121Z,100602.20
2019-05-21T13:06:05.166Z,100597.91
2019-05-21T13:09:09.209Z,100602.98
2019-05-21T13:12:13.158Z,100604.33
2019-05-21T13:15:17.142Z,100608.09
2019-05-21T13:18:22.294Z,100604.77
2019-05-21T13:21:26.236Z,100603.32
2019-05-21T13:24:30.075Z,100598.57
2019-05-21T13:27:34.034Z,100601.41
2019-05-21T13:30:37.961Z,100603.42
2019-05-21T13:33:41.812Z,100602.99
2019-05-21T13:36:45.717Z,100608.63
2019-05-21T13:39:50.702Z,100600.72
2019-05-21T13:42:54.812Z,100609.20
2019-05-21T13:45:58.822Z,100605.05
2019-05-21T13:49:02.803Z,100596.44
2019-05-21T13:52:06.853Z,100595.77
2019-05-21T13:55:10.871Z,100594.59
2019-05-21T13:58:14.792Z,100606.47
2019-05-21T14:01:19.059Z,100599.95
2019-05-21T14:04:22.992Z,100600.86
2019-05-21T14:07:27.008Z,100602.50
2019-05-21T14:10:30.833Z,100593.95
2019-05-21T14:13:34.785Z,100599.67
2019-05-21T14:16:38.717Z,100603.07
2019-05-21T14:19:42.568Z,100595.77
2019-05-21T14:22:46.381Z,100599.20
2019-05-21T14:25:50.330Z,100596.13
2019-05-21T14:28:54.161Z,100597.08
2019-05-21T14:31:58.082Z,100607.13
2019-05-21T14:35:02.512Z,100607.50
2019-05-21T14:38:06.632Z,100608.22
2019-05-21T14:41:10.624Z,100604.40
2019-05-21T14:44:14.559Z,100619.72
2019-05-21T14:47:18.638Z,100619.56
2019-05-21T14:50:22.657Z,100615.24
2019-05-21T14:53:26.515Z,100618.47
2019-05-21T14:56:30.454Z,100618.59
2019-05-21T14:59:34.387Z,100619.92
2019-05-21T15:02:38.511Z,100615.22
2019-05-21T15:05:42.770Z,100617.67
2019-05-21T15:08:46.595Z,100622.52
2019-05-21T15:11:50.461Z,100617.94
2019-05-21T15:14:54.391Z,100620.02
2019-05-21T15:17:58.390Z,100621.38
2019-05-21T15:21:07.224Z,100626.94
2019-05-21T15:24:11.320Z,100622.78
2019-05-21T15:27:15.279Z,100628.05
2019-05-21T15:30:19.440Z,100625.56
2019-05-21T15:33:23.279Z,100622.75
2019-05-21T15:36:27.826Z,100628.36
2019-05-21T15:39:31.729Z,100631.56
2019-05-21T15:42:35.566Z,100640.86
2019-05-21T15:45:39.448Z,100634.34
2019-05-21T15:48:43.371Z,100637.11
2019-05-21T15:51:47.254Z,100638.51
2019-05-21T15:54:51.174Z,100639.81
2019-05-21T15:57:55.037Z,100646.38
2019-05-21T16:00:59.007Z,100654.98
2019-05-21T16:04:02.831Z,100654.80
2019-05-21T16:07:06.836Z,100657.50
2019-05-21T16:10:11.003Z,100665.09
2019-05-21T16:13:14.926Z,100675.17
2019-05-21T16:16:18.788Z,100673.47
2019-05-21T16:19:22.690Z,100675.40
2019-05-21T16:22:26.655Z,100681.33
2019-05-21T16:25:30.556Z,100680.19
2019-05-21T16:28:34.457Z,100692.06
2019-05-21T16:31:38.441Z,100691.45
2019-05-21T16:34:42.355Z,100688.62
2019-05-21T16:37:46.174Z,100700.58
2019-05-21T16:40:50.175Z,100706.28
2019-05-21T16:43:54.104Z,100702.89
2019-05-21T16:46:57.944Z,100697.88
2019-05-21T16:50:01.741Z,100706.30
2019-05-21T16:53:05.703Z,100700.88
2019-05-21T16:56:09.612Z,100700.47
2019-05-21T16:59:13.519Z,100705.88
2019-05-21T17:02:17.331Z,100708.35
2019-05-21T17:05:21.250Z,100715.23
2019-05-21T17:08:25.303Z,100717.98
2019-05-21T17:11:29.113Z,100715.37
2019-05-21T17:14:33.057Z,100719.40
2019-05-21T17:17:37.035Z,100718.41
2019-05-21T17:20:40.881Z,100714.56
2019-05-21T17:23:44.680Z,100716.30
2019-05-21T17:26:48.798Z,100710.55
2019-05-21T17:29:52.743Z,100708.88
2019-05-21T17:32:56.669Z,100708.73
2019-05-21T17:36:00.476Z,100714.87
2019-05-21T17:39:06.032Z,100713.84
2019-05-21T17:42:15.586Z,100717.39
2019-05-21T17:45:15.941Z,100714.20
2019-05-21T17:48:19.902Z,100713.37
2019-05-21T17:51:23.723Z,100715.83
2019-05-21T17:54:27.616Z,100720.74
2019-05-21T17:57:32.027Z,100720.61
2019-05-21T18:00:47.931Z,100724.15
2019-05-21T18:03:52.670Z,100718.05
2019-05-21T18:06:56.670Z,100719.09
2019-05-21T18:10:00.730Z,100718.44
2019-05-21T18:13:04.646Z,100723.80
2019-05-21T18:16:08.817Z,100730.04
2019-05-21T18:19:13.100Z,100728.14
2019-05-21T18:22:18.557Z,100738.13
2019-05-21T18:25:23.611Z,100738.39
2019-05-21T18:28:27.590Z,100746.10
2019-05-21T18:31:31.917Z,100749.62
2019-05-21T18:34:35.913Z,100755.20
2019-05-21T18:37:39.934Z,100757.91
2019-05-21T18:40:43.969Z,100766.73
2019-05-21T18:43:50.066Z,100768.63
2019-05-21T18:46:53.488Z,100767.50
2019-05-21T18:49:57.391Z,100771.20
2019-05-21T18:53:01.300Z,100771.11
2019-05-21T18:56:05.267Z,100776.03
2019-05-21T18:59:09.553Z,100780.33
2019-05-21T19:02:13.796Z,100780.97
2019-05-21T19:05:17.851Z,100784.61
2019-05-21T19:08:21.607Z,100784.19
2019-05-21T19:11:25.590Z,100789.36
2019-05-21T19:14:29.992Z,100784.73
2019-05-21T19:17:35.859Z,100790.23
2019-05-21T19:20:39.631Z,100788.73
2019-05-21T19:23:43.827Z,100794.69
2019-05-21T19:26:47.665Z,100804.94
2019-05-21T19:29:51.542Z,100802.76
2019-05-21T19:32:55.513Z,100809.78
2019-05-21T19:35:59.343Z,100819.97
2019-05-21T19:39:03.659Z,100829.72
2019-05-21T19:42:07.570Z,100821.25
2019-05-21T19:45:12.153Z,100822.38
2019-05-21T19:48:16.300Z,100813.83
2019-05-21T19:51:20.482Z,100825.39
2019-05-21T19:54:24.439Z,100827.44
2019-05-21T19:57:30.219Z,100835.53
2019-05-21T20:00:36.619Z,100838.41
2019-05-21T20:03:40.757Z,100835.48
2019-05-21T20:06:44.829Z,100835.94
2019-05-21T20:09:50.930Z,100844.55
2019-05-21T20:12:55.047Z,100845.33
2019-05-21T20:16:01.356Z,100843.62
2019-05-21T20:19:06.302Z,100854.68
2019-05-21T20:22:11.442Z,100859.52
2019-05-21T20:25:16.931Z,100862.11
2019-05-21T20:28:21.971Z,100863.73
2019-05-21T20:31:26.323Z,100871.86
2019-05-21T20:34:30.494Z,100867.23
2019-05-21T20:37:36.736Z,100867.39
2019-05-21T20:40:42.087Z,100862.48
2019-05-21T20:43:58.690Z,100868.50
2019-05-21T20:46:55.002Z,100862.32
2019-05-21T20:49:59.989Z,100861.06
2019-05-21T20:53:05.617Z,100862.12
2019-05-21T20:56:10.282Z,100851.72
2019-05-21T20:59:14.851Z,100845.76
2019-05-21T21:02:19.250Z,100851.89
2019-05-21T21:05:23.770Z,100854.84
2019-05-21T21:08:28.738Z,100852.38
2019-05-21T21:11:33.466Z,100853.91
2019-05-21T21:14:41.615Z,100849.91
2019-05-21T21:17:45.904Z,100859.78
2019-05-21T21:20:50.471Z,100860.48
2019-05-21T21:23:56.479Z,100870.55
2019-05-21T21:27:00.704Z,100862.89
2019-05-21T21:30:05.797Z,100862.63
2019-05-21T21:33:10.788Z,100865.13
2019-05-21T21:36:15.091Z,100869.52
2019-05-21T21:39:19.471Z,100862.67
2019-05-21T21:42:23.429Z,100862.14
2019-05-21T21:45:27.502Z,100865.73
2019-05-21T21:48:32.198Z,100864.05
2019-05-21T21:51:36.385Z,100865.47
2019-05-21T21:54:40.272Z,100864.41
2019-05-21T21:57:44.091Z,100863.33
2019-05-21T22:01:44.377Z,100871.73
2019-05-21T22:04:49.363Z,100877.20
2019-05-21T22:07:54.127Z,100879.47
2019-05-21T22:10:58.430Z,100879.98
2019-05-21T22:14:03.357Z,100883.28
2019-05-21T22:17:09.474Z,100891.39
2019-05-21T22:20:14.226Z,100887.59
2019-05-21T22:23:18.280Z,100893.99
2019-05-21T22:26:22.237Z,100895.25
2019-05-21T22:29:26.701Z,100898.64
2019-05-21T22:32:30.526Z,100900.58
2019-05-21T22:35:34.429Z,100902.84
2019-05-21T22:38:38.341Z,100899.66
2019-05-21T22:41:42.210Z,100904.82
2019-05-21T22:44:46.986Z,100904.86
2019-05-21T22:47:50.874Z,100908.46
2019-05-21T22:50:54.782Z,100908.22
2019-05-21T22:53:58.594Z,100901.42
2019-05-21T22:57:03.236Z,100901.91
2019-05-21T23:00:08.221Z,100899.81
2019-05-21T23:03:12.303Z,100902.06
2019-05-21T23:06:16.101Z,100909.70
2019-05-21T23:09:20.371Z,100901.36
2019-05-21T23:12:24.244Z,100904.63
2019-05-21T23:15:28.347Z,100903.75
2019-05-21T23:18:33.347Z,100906.59
2019-05-21T23:21:37.229Z,100909.51
2019-05-21T23:24:41.281Z,100914.27
2019-05-21T23:27:45.742Z,100911.71
2019-05-21T23:30:49.656Z,100911.31
2019-05-21T23:33:56.199Z,100912.42
2019-05-21T23:37:00.525Z,100918.37
2019-05-21T23:40:06.541Z,100906.53
2019-05-21T23:43:11.375Z,100917.34
2019-05-21T23:46:15.383Z,100904.41
2019-05-21T23:49:19.653Z,100914.16
2019-05-21T23:52:24.067Z,100915.20
2019-05-21T23:55:28.246Z,100905.69
2019-05-21T23:58:32.928Z,100912.23
